Time;durP1;ratioP1;P1;durP2;ratioP2;P2;SDS_P1;SDS_P2;PMS_P1;PMS_P2;Temp;Humidity;BMP_temperature;BMP_pressure;BME280_temperature;BME280_humidity;BME280_pressure;Samples;Min_cycle;Max_cycle;Signal;HPM_P1;HPM_P2
2023/07/15 00:01:18;;;;;;;3.23;2.27;;;;;;;21.04;45.04;98346.75;5133334;27;41818;-83
2023/07/15 00:03:46;;;;;;;2.40;1.67;;;;;;;20.99;45.00;98351.84;5130202;27;43732;-79
2023/07/15 00:06:15;;;;;;;1.93;1.70;;;;;;;20.90;45.04;98346.63;5115090;27;41344;-78
2023/07/15 00:08:45;;;;;;;7.17;2.23;;;;;;;20.88;45.55;98346.84;5133330;27;39935;-82
2023/07/15 00:11:19;;;;;;;3.43;2.00;;;;;;;20.83;45.61;98353.75;5131887;27;42628;-80
2023/07/15 00:13:47;;;;;;;4.83;2.00;;;;;;;20.75;45.65;98349.22;5114722;27;41713;-81
2023/07/15 00:16:15;;;;;;;2.43;2.00;;;;;;;20.70;45.67;98340.81;5131786;27;41179;-76
2023/07/15 00:18:43;;;;;;;1.87;1.70;;;;;;;20.65;45.77;98340.47;5131247;27;39147;-82
2023/07/15 00:21:18;;;;;;;2.57;1.80;;;;;;;20.61;45.99;98347.25;5129718;27;42845;-80
2023/07/15 00:23:48;;;;;;;4.37;2.00;;;;;;;20.57;46.18;98345.91;5129078;27;43497;-81
2023/07/15 00:26:16;;;;;;;2.10;1.90;;;;;;;20.53;46.10;98341.84;5113140;27;42596;-80
2023/07/15 00:28:44;;;;;;;6.20;1.93;;;;;;;20.31;46.43;98320.03;5131711;27;39755;-82
2023/07/15 00:31:14;;;;;;;3.53;1.90;;;;;;;20.44;46.51;98344.56;5113507;27;41107;-83
2023/07/15 00:33:42;;;;;;;3.47;1.83;;;;;;;20.41;46.80;98346.75;5113196;27;42975;-82
2023/07/15 00:36:12;;;;;;;2.00;1.80;;;;;;;20.39;46.78;98348.81;5113423;27;41341;-83
2023/07/15 00:38:39;;;;;;;2.10;1.90;;;;;;;20.36;46.61;98349.13;5134503;27;40010;-78
2023/07/15 00:41:15;;;;;;;3.73;1.80;;;;;;;20.33;46.63;98344.91;5134019;27;41789;-80
2023/07/15 00:43:58;;;;;;;1.87;1.60;;;;;;;20.31;46.69;98341.53;5116726;27;41613;-79
2023/07/15 00:47:05;;;;;;;1.77;1.63;;;;;;;20.28;46.91;98339.19;5131941;27;41956;-78
2023/07/15 00:49:34;;;;;;;1.30;1.20;;;;;;;20.23;46.87;98338.88;5133730;27;40765;-83
2023/07/15 00:52:08;;;;;;;2.40;1.90;;;;;;;20.19;46.98;98332.13;5135534;27;41553;-80
2023/07/15 00:54:38;;;;;;;4.27;1.80;;;;;;;20.17;47.20;98344.06;5116296;27;43197;-76
2023/07/15 00:57:07;;;;;;;4.00;1.70;;;;;;;20.09;47.08;98334.16;5116672;27;41203;-78
2023/07/15 00:59:36;;;;;;;2.00;1.80;;;;;;;20.10;47.26;98333.16;5135686;27;41174;-84
2023/07/15 01:02:06;;;;;;;1.83;1.47;;;;;;;20.07;47.57;98336.16;5134809;27;41689;-79
2023/07/15 01:04:34;;;;;;;3.77;1.60;;;;;;;20.04;47.25;98340.03;5117345;27;43314;-77
2023/07/15 01:07:02;;;;;;;2.93;2.13;;;;;;;19.99;47.63;98336.19;5117575;27;41170;-81
2023/07/15 01:09:30;;;;;;;3.03;1.80;;;;;;;19.96;47.65;98333.81;5134469;27;39033;-84
2023/07/15 01:11:57;;;;;;;1.77;1.67;;;;;;;19.94;48.07;98333.16;5117183;27;40718;-79
2023/07/15 01:14:27;;;;;;;4.83;2.20;;;;;;;19.90;47.83;98326.44;5135533;27;43656;-79
2023/07/15 01:16:55;;;;;;;1.90;1.60;;;;;;;19.87;48.21;98326.78;5117210;27;41104;-76
2023/07/15 01:19:24;;;;;;;2.37;1.90;;;;;;;19.83;47.86;98320.03;5117307;27;39031;-79
2023/07/15 01:21:52;;;;;;;3.70;1.70;;;;;;;19.77;47.92;98318.88;5117145;27;41808;-79
2023/07/15 01:24:25;;;;;;;2.53;1.70;;;;;;;19.77;48.74;98315.34;5134138;27;43712;-78
2023/07/15 01:26:59;;;;;;;2.97;1.80;;;;;;;19.70;48.76;98324.06;5115666;27;42402;-83
2023/07/15 01:29:27;;;;;;;2.27;1.60;;;;;;;19.62;49.01;98316.00;5115781;27;40139;-82
2023/07/15 01:31:55;;;;;;;2.50;1.63;;;;;;;19.57;48.93;98317.50;5115812;27;41674;-85
2023/07/15 01:34:22;;;;;;;2.27;2.07;;;;;;;19.61;49.22;98327.75;5115716;27;42639;-78
2023/07/15 01:36:51;;;;;;;4.20;2.07;;;;;;;19.57;49.14;98326.41;5133124;27;42382;-84
2023/07/15 01:39:18;;;;;;;3.60;1.87;;;;;;;19.53;49.10;98324.22;5115493;27;39993;-78
2023/07/15 01:41:48;;;;;;;1.70;1.60;;;;;;;19.46;49.26;98317.78;5115840;27;40681;-85
2023/07/15 01:44:15;;;;;;;2.40;2.20;;;;;;;19.41;49.55;98312.91;5132705;27;42051;-84
2023/07/15 01:46:43;;;;;;;2.67;2.00;;;;;;;19.45;49.91;98330.38;5115748;27;41117;-81
2023/07/15 01:49:10;;;;;;;2.00;1.80;;;;;;;19.33;49.75;98312.88;5131521;27;39948;-79
2023/07/15 01:51:39;;;;;;;2.67;2.00;;;;;;;19.34;49.88;98319.94;5115528;27;41110;-80
2023/07/15 01:54:06;;;;;;;1.77;1.67;;;;;;;19.36;49.88;98331.38;5133569;27;42771;-79
2023/07/15 01:56:34;;;;;;;2.27;2.07;;;;;;;19.24;50.08;98313.88;5115965;27;42546;-80
2023/07/15 01:59:03;;;;;;;5.57;2.30;;;;;;;19.31;50.41;98329.16;5116341;27;38794;-85
2023/07/15 02:01:32;;;;;;;1.83;1.73;;;;;;;19.31;50.54;98331.84;5133551;27;41788;-83
2023/07/15 02:03:59;;;;;;;2.53;1.73;;;;;;;19.31;50.82;98325.63;5116328;27;42532;-81
2023/07/15 02:06:27;;;;;;;3.80;2.00;;;;;;;19.30;50.76;98330.16;5116652;27;42043;-82
2023/07/15 02:08:55;;;;;;;4.83;2.33;;;;;;;19.32;51.39;98327.31;5133572;27;40906;-83
2023/07/15 02:11:23;;;;;;;2.27;1.97;;;;;;;19.32;51.42;98321.94;5133756;27;42115;-80
2023/07/15 02:13:51;;;;;;;4.53;2.53;;;;;;;19.31;51.57;98320.25;5115924;27;41776;-79
2023/07/15 02:16:21;;;;;;;2.53;2.33;;;;;;;19.30;51.18;98318.56;5133615;27;42154;-84
2023/07/15 02:18:49;;;;;;;2.63;2.20;;;;;;;19.28;51.31;98323.31;5133550;27;40003;-80
2023/07/15 02:21:16;;;;;;;2.70;2.47;;;;;;;19.28;51.39;98320.63;5133685;27;40671;-80
2023/07/15 02:23:44;;;;;;;2.83;2.50;;;;;;;19.26;51.80;98322.63;5117451;27;42806;-85
2023/07/15 02:26:13;;;;;;;2.63;2.20;;;;;;;19.23;51.88;98317.56;5116894;27;41056;-77
2023/07/15 02:28:40;;;;;;;2.37;2.17;;;;;;;19.20;51.58;98317.88;5126842;27;39842;-74
2023/07/15 02:31:08;;;;;;;2.60;2.40;;;;;;;19.16;51.68;98316.56;5141934;27;41795;-80
2023/07/15 02:33:39;;;;;;;2.43;2.10;;;;;;;19.12;52.03;98315.19;5132483;27;43442;-77
2023/07/15 02:36:07;;;;;;;6.30;2.90;;;;;;;19.07;51.92;98317.50;5114903;27;41098;-83
2023/07/15 02:38:35;;;;;;;2.50;2.30;;;;;;;19.04;52.33;98312.50;5132043;27;40051;-84
2023/07/15 02:41:03;;;;;;;2.40;1.93;;;;;;;19.00;52.50;98317.31;5132234;27;41880;-80
2023/07/15 02:43:31;;;;;;;2.20;2.00;;;;;;;18.97;52.26;98312.28;5115164;27;42534;-86
2023/07/15 02:45:59;;;;;;;2.40;2.20;;;;;;;18.93;52.67;98306.38;5114579;27;41336;-75
2023/07/15 02:48:28;;;;;;;2.33;2.13;;;;;;;18.94;53.02;98302.69;5132215;27;40042;-77
2023/07/15 02:50:58;;;;;;;3.03;1.93;;;;;;;18.92;52.95;98310.06;5113748;27;42441;-78
2023/07/15 02:53:26;;;;;;;2.33;2.13;;;;;;;18.92;52.98;98301.19;5132023;27;43035;-83
2023/07/15 02:55:54;;;;;;;3.50;2.53;;;;;;;18.88;52.99;98300.69;5131438;27;42353;-80
2023/07/15 02:58:23;;;;;;;3.30;3.00;;;;;;;18.90;53.14;98301.38;5133091;27;39829;-80
2023/07/15 03:00:52;;;;;;;2.60;2.40;;;;;;;18.86;53.37;98310.72;5133872;27;42640;-81
2023/07/15 03:03:20;;;;;;;3.17;2.30;;;;;;;18.86;53.51;98305.38;5132995;27;42870;-84
2023/07/15 03:05:47;;;;;;;2.70;2.13;;;;;;;18.79;53.64;98304.31;5132605;27;43079;-76
2023/07/15 03:08:17;;;;;;;3.07;2.70;;;;;;;18.81;54.32;98306.84;5132794;27;41363;-80
2023/07/15 03:10:44;;;;;;;2.90;2.63;;;;;;;18.78;54.05;98302.66;5132252;27;41977;-83
2023/07/15 03:13:12;;;;;;;2.90;2.60;;;;;;;18.75;54.17;98297.59;5115781;27;41581;-79
2023/07/15 03:15:40;;;;;;;3.27;2.37;;;;;;;18.73;54.23;98307.66;5131813;27;42250;-84
2023/07/15 03:18:08;;;;;;;2.73;2.50;;;;;;;18.72;53.91;98308.66;5115126;27;40987;-78
2023/07/15 03:20:35;;;;;;;3.43;2.30;;;;;;;18.70;54.00;98307.97;5132992;27;41887;-81
2023/07/15 03:23:03;;;;;;;3.90;2.30;;;;;;;18.69;54.00;98306.28;5113699;27;41324;-81
2023/07/15 03:25:32;;;;;;;2.20;2.00;;;;;;;18.68;54.40;98307.28;5132463;27;43221;-81
2023/07/15 03:28:00;;;;;;;2.50;2.27;;;;;;;18.30;54.21;98245.03;5131344;27;39939;-81
2023/07/15 03:30:28;;;;;;;2.53;2.33;;;;;;;18.69;54.46;98305.44;5113891;27;41862;-77
2023/07/15 03:32:57;;;;;;;2.17;1.97;;;;;;;18.69;54.38;98300.06;5131353;27;41825;-82
2023/07/15 03:35:25;;;;;;;2.43;2.23;;;;;;;18.67;54.81;98308.28;5130999;27;42407;-74
2023/07/15 03:37:52;;;;;;;2.90;2.00;;;;;;;18.59;54.90;98303.72;5130978;27;40023;-79
2023/07/15 03:40:21;;;;;;;2.57;2.23;;;;;;;18.64;54.75;98316.66;5113526;27;40731;-83
2023/07/15 03:42:50;;;;;;;2.50;2.30;;;;;;;18.62;55.01;98314.13;5113885;27;42094;-82
2023/07/15 03:45:17;;;;;;;2.60;2.10;;;;;;;18.61;54.80;98322.34;5132268;27;42011;-78
2023/07/15 03:47:45;;;;;;;3.27;2.47;;;;;;;18.59;54.97;98324.34;5131280;27;40115;-80
2023/07/15 03:50:13;;;;;;;2.30;2.10;;;;;;;18.59;55.06;98314.44;5131980;27;42750;-79
2023/07/15 03:52:41;;;;;;;2.20;2.00;;;;;;;18.52;55.41;98299.13;5114176;27;41932;-76
2023/07/15 03:55:09;;;;;;;2.43;2.23;;;;;;;18.63;55.45;98314.97;5130759;27;42662;-83
2023/07/15 03:57:37;;;;;;;2.30;2.10;;;;;;;18.64;55.44;98316.66;5131604;27;39047;-78
2023/07/15 04:00:13;;;;;;;3.20;2.40;;;;;;;18.66;55.69;98314.66;5131808;27;41934;-81
2023/07/15 04:02:44;;;;;;;2.37;2.17;;;;;;;18.68;55.68;98312.63;5115069;27;43272;-82
2023/07/15 04:05:12;;;;;;;3.10;2.27;;;;;;;18.72;55.44;98308.66;5132897;27;42178;-82
2023/07/15 04:07:40;;;;;;;4.83;2.10;;;;;;;18.78;55.27;98309.88;5132141;27;41853;-83
2023/07/15 04:10:09;;;;;;;5.00;2.20;;;;;;;18.83;55.29;98312.88;5132978;27;42680;-76
2023/07/15 04:12:36;;;;;;;3.37;2.13;;;;;;;18.90;55.29;98305.88;5116528;27;42785;-79
2023/07/15 04:15:07;;;;;;;2.20;2.00;;;;;;;18.95;55.33;98309.75;5117902;27;42317;-79
2023/07/15 04:17:34;;;;;;;3.40;2.50;;;;;;;19.05;55.13;98300.72;5132746;27;40017;-84
2023/07/15 04:20:07;;;;;;;3.77;2.50;;;;;;;19.13;55.03;98300.75;5136576;27;41868;-84
2023/07/15 04:22:37;;;;;;;2.50;2.00;;;;;;;19.21;54.96;98303.47;5116065;27;41671;-77
2023/07/15 04:25:05;;;;;;;2.50;2.30;;;;;;;19.30;55.26;98291.72;5116643;27;41054;-80
2023/07/15 04:27:33;;;;;;;3.77;2.43;;;;;;;19.40;54.69;98292.44;5134151;27;40202;-79
2023/07/15 04:30:03;;;;;;;2.33;2.10;;;;;;;19.50;54.87;98287.78;5133820;27;42443;-84
2023/07/15 04:32:32;;;;;;;2.70;2.30;;;;;;;19.59;54.69;98285.94;5134226;27;42619;-84
2023/07/15 04:35:02;;;;;;;2.70;2.50;;;;;;;19.69;54.39;98287.47;5133779;27;41385;-85
2023/07/15 04:37:29;;;;;;;3.10;2.20;;;;;;;19.78;54.36;98290.97;5134190;27;39853;-82
2023/07/15 04:39:57;;;;;;;2.93;2.23;;;;;;;19.87;54.56;98297.22;5116673;27;40570;-81
2023/07/15 04:42:24;;;;;;;2.40;2.20;;;;;;;19.97;54.54;98295.19;5116687;27;42140;-78
2023/07/15 04:44:52;;;;;;;2.87;2.47;;;;;;;20.05;54.31;98295.19;5116652;27;40959;-86
2023/07/15 04:47:19;;;;;;;2.87;2.40;;;;;;;20.07;54.59;98287.78;5134116;27;39794;-80
2023/07/15 04:49:48;;;;;;;3.00;2.50;;;;;;;20.26;54.30;98300.88;5134738;27;41707;-83
2023/07/15 04:52:16;;;;;;;2.47;2.27;;;;;;;20.35;54.23;98309.78;5132063;27;42915;-77
2023/07/15 04:54:44;;;;;;;4.30;2.87;;;;;;;20.42;54.30;98300.03;5133152;27;41331;-83
2023/07/15 04:57:12;;;;;;;3.00;2.70;;;;;;;20.51;53.98;98309.78;5133728;27;40186;-84
2023/07/15 04:59:39;;;;;;;2.80;2.57;;;;;;;20.59;53.97;98314.28;5135413;27;41716;-82
2023/07/15 05:02:07;;;;;;;2.77;2.43;;;;;;;20.69;54.34;98312.22;5117694;27;43164;-79
2023/07/15 05:04:35;;;;;;;3.20;2.50;;;;;;;20.77;54.34;98310.34;5137850;27;42365;-80
2023/07/15 05:07:05;;;;;;;2.60;2.40;;;;;;;20.86;54.15;98311.19;5138533;27;38610;-81
2023/07/15 05:09:32;;;;;;;2.53;2.33;;;;;;;20.88;54.03;98290.31;5137580;27;41054;-80
2023/07/15 05:12:00;;;;;;;2.37;2.17;;;;;;;21.06;54.08;98304.34;5121072;27;42730;-82
2023/07/15 05:14:28;;;;;;;2.60;2.40;;;;;;;21.20;53.92;98304.66;5137141;27;42216;-77
2023/07/15 05:16:55;;;;;;;2.87;2.60;;;;;;;21.33;54.14;98299.53;5117398;27;39581;-79
2023/07/15 05:19:23;;;;;;;3.13;2.60;;;;;;;21.35;53.96;98281.34;5135240;27;42810;-82
2023/07/15 05:21:51;;;;;;;3.07;2.77;;;;;;;21.57;53.68;98302.06;5134934;27;43572;-80
2023/07/15 05:24:20;;;;;;;2.97;2.77;;;;;;;21.67;53.54;98302.66;5132752;27;41417;-77
2023/07/15 05:26:48;;;;;;;2.87;2.63;;;;;;;21.79;53.61;98301.22;5134312;27;41008;-78
2023/07/15 05:29:15;;;;;;;4.50;3.13;;;;;;;21.92;54.13;98295.22;5134192;27;41708;-81
2023/07/15 05:31:45;;;;;;;3.47;2.40;;;;;;;22.04;53.62;98295.66;5133187;27;43178;-83
2023/07/15 05:34:13;;;;;;;3.00;2.70;;;;;;;22.18;53.71;98300.25;5132789;27;42229;-79
2023/07/15 05:36:41;;;;;;;3.07;2.87;;;;;;;22.29;53.67;98297.13;5116305;27;39204;-77
2023/07/15 05:39:08;;;;;;;4.40;2.90;;;;;;;22.44;53.50;98294.44;5132688;27;42407;-81
2023/07/15 05:41:37;;;;;;;3.00;2.40;;;;;;;22.52;53.41;98287.09;5115741;27;42004;-76
2023/07/15 05:44:05;;;;;;;3.87;3.00;;;;;;;22.78;53.44;98297.44;5115117;27;42484;-80
2023/07/15 05:46:34;;;;;;;2.67;2.23;;;;;;;22.95;53.36;98294.56;5133030;27;40873;-81
2023/07/15 05:49:03;;;;;;;2.97;2.70;;;;;;;23.12;53.18;98299.56;5133748;27;41509;-77
2023/07/15 05:51:31;;;;;;;4.93;2.80;;;;;;;23.29;53.03;98294.78;5131832;27;42870;-75
2023/07/15 05:53:58;;;;;;;2.90;2.40;;;;;;;23.49;52.78;98295.81;5132074;27;42590;-76
2023/07/15 05:56:26;;;;;;;2.67;2.33;;;;;;;23.66;52.61;98291.06;5132430;27;39988;-76
2023/07/15 05:58:55;;;;;;;3.57;2.43;;;;;;;23.81;52.13;98283.72;5143258;27;41025;-75
2023/07/15 06:01:23;;;;;;;2.50;2.30;;;;;;;24.09;51.92;98301.88;5144511;27;43147;-75
2023/07/15 06:03:50;;;;;;;2.10;1.90;;;;;;;24.27;51.82;98304.94;5116138;27;41280;-76
2023/07/15 06:06:18;;;;;;;2.40;2.20;;;;;;;24.42;51.37;98300.28;5133431;27;40059;-77
2023/07/15 06:08:46;;;;;;;3.73;2.73;;;;;;;24.56;50.81;98298.50;5132628;27;41953;-75
2023/07/15 06:11:15;;;;;;;2.73;2.40;;;;;;;24.73;50.89;98299.03;5115436;27;42837;-76
2023/07/15 06:13:43;;;;;;;2.70;2.40;;;;;;;24.89;50.41;98306.81;5132897;27;42151;-77
2023/07/15 06:16:12;;;;;;;2.73;2.47;;;;;;;25.05;50.19;98311.94;5116162;27;38769;-80
2023/07/15 06:18:40;;;;;;;2.77;2.57;;;;;;;24.96;49.91;98267.09;5132909;27;42502;-77
2023/07/15 06:21:08;;;;;;;2.40;2.20;;;;;;;25.40;49.42;98316.25;5115755;27;42671;-74
2023/07/15 06:23:36;;;;;;;4.20;2.77;;;;;;;25.51;48.71;98300.44;5131029;27;41134;-76
2023/07/15 06:26:04;;;;;;;6.47;2.97;;;;;;;25.69;48.34;98306.16;5131892;27;39409;-75
2023/07/15 06:28:31;;;;;;;2.80;2.37;;;;;;;25.92;48.45;98306.59;5132899;27;41444;-76
2023/07/15 06:31:03;;;;;;;3.03;2.73;;;;;;;26.16;47.85;98307.03;5131920;27;42824;-76
2023/07/15 06:33:32;;;;;;;2.63;2.40;;;;;;;26.38;46.82;98308.53;5131700;27;42234;-74
2023/07/15 06:36:00;;;;;;;2.97;2.40;;;;;;;26.61;46.74;98317.06;5113930;27;39778;-77
2023/07/15 06:38:28;;;;;;;3.80;2.77;;;;;;;26.84;46.30;98322.03;5114649;27;40610;-77
2023/07/15 06:40:56;;;;;;;3.33;2.47;;;;;;;27.06;45.91;98319.94;5114338;27;42712;-77
2023/07/15 06:43:24;;;;;;;4.03;2.30;;;;;;;27.27;45.76;98322.34;5133116;27;42018;-76
2023/07/15 06:45:51;;;;;;;2.80;2.60;;;;;;;27.65;45.19;98325.13;5133137;27;39934;-78
2023/07/15 06:48:19;;;;;;;3.80;2.30;;;;;;;27.97;44.44;98339.59;5133508;27;41964;-75
2023/07/15 06:50:48;;;;;;;3.53;2.73;;;;;;;28.23;43.45;98344.88;5114397;27;43158;-75
2023/07/15 06:53:15;;;;;;;2.33;2.13;;;;;;;28.40;43.62;98338.88;5132348;27;42174;-78
2023/07/15 06:55:43;;;;;;;2.27;2.17;;;;;;;28.49;43.33;98332.09;5132086;27;40684;-79
2023/07/15 06:58:11;;;;;;;2.40;2.13;;;;;;;28.62;42.61;98337.44;5132495;27;43086;-80
2023/07/15 07:00:39;;;;;;;2.57;2.30;;;;;;;28.71;42.78;98336.06;5114998;27;44182;-76
2023/07/15 07:03:06;;;;;;;3.20;2.40;;;;;;;28.87;42.13;98334.69;5133595;27;42247;-76
2023/07/15 07:05:34;;;;;;;2.23;2.13;;;;;;;29.04;42.16;98334.94;5132237;27;40005;-79
2023/07/15 07:08:04;;;;;;;2.53;2.10;;;;;;;29.23;42.02;98340.16;5115149;27;41740;-78
2023/07/15 07:10:32;;;;;;;3.60;2.77;;;;;;;29.46;42.01;98347.69;5132854;27;43768;-76
2023/07/15 07:12:59;;;;;;;2.50;2.30;;;;;;;29.66;41.45;98347.44;5132185;27;41220;-79
2023/07/15 07:15:29;;;;;;;3.40;2.40;;;;;;;29.83;40.28;98358.53;5131612;27;39311;-78
2023/07/15 07:17:57;;;;;;;3.30;2.50;;;;;;;29.71;39.18;98316.69;5112814;27;40434;-79
2023/07/15 07:20:25;;;;;;;3.60;2.23;;;;;;;30.15;39.58;98340.88;5130538;27;43757;-75
2023/07/15 07:22:53;;;;;;;2.47;2.27;;;;;;;30.41;39.97;98349.72;5130538;27;41429;-75
2023/07/15 07:25:21;;;;;;;2.13;1.93;;;;;;;30.62;39.14;98343.69;5131870;27;41010;-78
2023/07/15 07:27:49;;;;;;;3.83;2.50;;;;;;;30.86;37.96;98352.72;5130607;27;41165;-79
2023/07/15 07:30:17;;;;;;;2.43;2.23;;;;;;;31.05;37.26;98370.66;5113752;27;43283;-79
2023/07/15 07:32:45;;;;;;;4.77;2.27;;;;;;;31.23;37.07;98359.63;5131925;27;41188;-78
2023/07/15 07:35:12;;;;;;;2.73;2.53;;;;;;;31.47;36.72;98365.06;5132329;27;39729;-79
2023/07/15 07:37:40;;;;;;;2.37;2.13;;;;;;;31.86;35.97;98374.34;5132146;27;42483;-79
2023/07/15 07:40:10;;;;;;;5.40;2.43;;;;;;;32.36;34.82;98371.75;5131996;27;41726;-78
2023/07/15 07:42:39;;;;;;;2.17;2.00;;;;;;;32.85;34.47;98372.03;5131215;27;42316;-78
2023/07/15 07:45:13;;;;;;;2.00;1.90;;;;;;;33.13;33.89;98389.22;5131248;27;40422;-80
2023/07/15 07:47:41;;;;;;;3.17;2.00;;;;;;;33.30;33.18;98394.66;5130830;27;41858;-79
2023/07/15 07:50:09;;;;;;;2.30;1.90;;;;;;;33.42;33.14;98375.34;5116944;27;41390;-80
2023/07/15 07:52:38;;;;;;;2.40;2.20;;;;;;;34.15;31.32;98390.50;5135902;27;42287;-80
2023/07/15 07:55:06;;;;;;;2.80;2.60;;;;;;;35.61;29.89;98382.56;5135767;27;40175;-81
2023/07/15 07:57:34;;;;;;;2.57;2.37;;;;;;;37.38;27.43;98395.78;5117268;27;40808;-80
2023/07/15 08:00:04;;;;;;;2.77;1.97;;;;;;;38.90;24.93;98420.97;5117177;27;41325;-81
2023/07/15 08:02:33;;;;;;;1.70;1.60;;;;;;;39.86;24.27;98422.78;5134315;27;42434;-80
2023/07/15 08:05:00;;;;;;;2.85;2.05;;;;;;;40.43;23.46;98441.16;5134078;27;38977;-83
2023/07/15 08:07:28;;;;;;;1.83;1.67;;;;;;;40.61;23.07;98442.28;5117655;27;40672;-81
2023/07/15 08:09:56;;;;;;;1.70;1.60;;;;;;;40.97;22.72;98425.06;5134496;27;43592;-81
2023/07/15 08:12:23;;;;;;;2.58;2.38;;;;;;;41.43;22.55;98420.34;5135433;27;42276;-85
2023/07/15 08:14:51;;;;;;;1.73;1.63;;;;;;;41.50;22.52;98417.16;5134497;27;39947;-81
2023/07/15 08:17:20;;;;;;;2.78;1.80;;;;;;;41.19;22.16;98403.00;5117381;27;40877;-81
2023/07/15 08:19:48;;;;;;;3.05;1.92;;;;;;;40.50;22.61;98413.03;5134351;27;43350;-83
2023/07/15 08:22:16;;;;;;;4.25;2.10;;;;;;;39.83;23.12;98406.72;5116926;27;41127;-81
2023/07/15 08:24:43;;;;;;;2.22;1.90;;;;;;;39.41;23.45;98394.47;5117051;27;39034;-81
2023/07/15 08:27:11;;;;;;;2.83;1.65;;;;;;;39.63;23.59;98395.88;5134497;27;41729;-81
2023/07/15 08:29:39;;;;;;;3.58;1.80;;;;;;;40.58;22.64;98378.19;5133844;27;42256;-81
2023/07/15 08:32:07;;;;;;;2.05;1.90;;;;;;;41.68;20.98;98405.13;5136144;27;43554;-82
2023/07/15 08:34:37;;;;;;;1.83;1.70;;;;;;;42.38;20.76;98409.50;5134766;27;40000;-83
2023/07/15 08:37:05;;;;;;;1.83;1.73;;;;;;;42.84;20.31;98406.44;5117731;27;40736;-83
2023/07/15 08:39:33;;;;;;;1.98;1.77;;;;;;;43.01;19.45;98401.00;5135230;27;42559;-83
2023/07/15 08:42:02;;;;;;;3.28;1.75;;;;;;;43.39;19.19;98395.81;5134937;27;42982;-83
2023/07/15 08:44:30;;;;;;;1.85;1.75;;;;;;;43.93;19.02;98421.59;5134559;27;39970;-88
2023/07/15 08:46:59;;;;;;;2.00;1.88;;;;;;;44.18;18.64;98420.03;5135144;27;40427;-82
2023/07/15 08:49:28;;;;;;;1.83;1.73;;;;;;;44.30;18.25;98432.19;5135970;27;42652;-80
2023/07/15 08:51:59;;;;;;;1.60;1.50;;;;;;;43.45;18.85;98410.41;5137893;27;43858;-80
2023/07/15 08:54:28;;;;;;;3.22;1.70;;;;;;;42.64;19.14;98424.47;5119644;27;39083;-78
2023/07/15 08:56:57;;;;;;;2.05;1.60;;;;;;;41.80;20.20;98399.03;5134909;27;41884;-83
2023/07/15 08:59:25;;;;;;;2.08;1.50;;;;;;;41.40;20.61;98407.06;5135178;27;42685;-81
2023/07/15 09:01:52;;;;;;;2.45;2.10;;;;;;;41.04;20.37;98403.28;5134270;27;43195;-82
2023/07/15 09:04:20;;;;;;;2.30;1.90;;;;;;;41.02;20.20;98405.53;5133346;27;39853;-80
2023/07/15 09:06:50;;;;;;;1.90;1.50;;;;;;;40.93;20.54;98404.59;5116349;27;42244;-83
2023/07/15 09:09:19;;;;;;;2.20;2.00;;;;;;;40.70;21.39;98404.38;5116573;27;41754;-79
2023/07/15 09:11:47;;;;;;;2.10;1.90;;;;;;;40.47;21.66;98394.19;5133371;27;41315;-81
2023/07/15 09:14:15;;;;;;;2.10;1.90;;;;;;;39.96;21.75;98360.81;5133613;27;39903;-80
2023/07/15 09:16:43;;;;;;;2.75;1.88;;;;;;;39.79;20.96;98400.13;5133796;27;40603;-76
2023/07/15 09:19:12;;;;;;;1.90;1.80;;;;;;;39.36;21.64;98388.97;5133315;27;42642;-80
2023/07/15 09:21:51;;;;;;;2.05;1.80;;;;;;;38.97;21.56;98396.53;5134780;27;42352;-76
2023/07/15 09:24:21;;;;;;;1.92;1.83;;;;;;;38.68;22.08;98396.53;5144370;27;40783;-77
2023/07/15 09:26:49;;;;;;;2.08;1.70;;;;;;;38.49;22.23;98388.06;5141676;27;41655;-83
2023/07/15 09:29:20;;;;;;;2.60;1.88;;;;;;;38.27;22.26;98377.44;5133928;27;42625;-78
2023/07/15 09:31:48;;;;;;;2.10;1.90;;;;;;;38.15;22.61;98392.72;5134054;27;41469;-81
2023/07/15 09:34:16;;;;;;;2.80;2.17;;;;;;;38.06;23.02;98379.50;5117034;27;39597;-78
2023/07/15 09:36:44;;;;;;;2.35;2.15;;;;;;;37.93;23.17;98377.34;5117027;27;41679;-81
2023/07/15 09:39:12;;;;;;;2.05;1.95;;;;;;;37.83;23.45;98371.88;5134422;27;41671;-77
2023/07/15 09:41:42;;;;;;;4.72;2.10;;;;;;;37.76;23.48;98368.59;5117138;27;41397;-78
2023/07/15 09:44:11;;;;;;;2.45;2.25;;;;;;;37.61;24.03;98339.03;5133756;27;41091;-79
2023/07/15 09:46:41;;;;;;;1.92;1.75;;;;;;;37.79;23.61;98351.44;5134341;27;41625;-77
2023/07/15 09:49:09;;;;;;;2.20;2.00;;;;;;;37.95;23.51;98363.25;5133857;27;41867;-84
2023/07/15 09:51:37;;;;;;;2.15;1.95;;;;;;;38.06;23.34;98357.38;5134782;27;42058;-80
2023/07/15 09:54:05;;;;;;;2.45;2.00;;;;;;;38.19;23.22;98366.16;5133703;27;41843;-83
2023/07/15 09:56:36;;;;;;;1.88;1.77;;;;;;;38.37;23.89;98358.00;5135181;27;41927;-82
2023/07/15 09:59:10;;;;;;;2.78;1.67;;;;;;;39.61;22.56;98353.78;5133530;27;41709;-83
2023/07/15 10:01:45;;;;;;;1.92;1.80;;;;;;;40.54;21.60;98373.28;5129332;27;42351;-83
2023/07/15 10:04:22;;;;;;;1.92;1.83;;;;;;;40.90;21.31;98359.63;5131980;27;39854;-79
2023/07/15 10:06:51;;;;;;;1.95;1.73;;;;;;;41.34;20.71;98377.72;5130067;27;42793;-81
2023/07/15 10:09:19;;;;;;;2.05;1.80;;;;;;;41.39;20.95;98377.63;5132847;27;43623;-81
2023/07/15 10:11:49;;;;;;;3.05;1.80;;;;;;;41.19;20.28;98395.50;5132385;27;42347;-79
2023/07/15 10:14:18;;;;;;;2.53;2.00;;;;;;;41.05;20.82;98382.72;5132901;27;39867;-82
2023/07/15 10:16:46;;;;;;;2.00;1.90;;;;;;;41.22;21.17;98378.22;5132630;27;43019;-78
2023/07/15 10:19:44;;;;;;;2.10;1.90;;;;;;;41.40;21.07;98384.00;5132201;27;41619;-80
2023/07/15 10:22:12;;;;;;;2.45;2.03;;;;;;;41.54;20.38;98380.13;5131642;27;42273;-79
2023/07/15 10:24:42;;;;;;;1.92;1.83;;;;;;;41.92;21.18;98374.28;5133787;27;39928;-83
2023/07/15 10:27:11;;;;;;;1.92;1.80;;;;;;;42.73;19.81;98378.00;5115234;27;40310;-77
2023/07/15 10:29:41;;;;;;;2.05;1.95;;;;;;;42.99;19.76;98365.06;5133178;27;42697;-82
2023/07/15 10:32:11;;;;;;;1.98;1.88;;;;;;;42.99;19.47;98375.41;5134676;27;43274;-79
2023/07/15 10:34:41;;;;;;;2.40;2.10;;;;;;;42.76;19.42;98382.94;5133391;27;40008;-85
2023/07/15 10:37:11;;;;;;;2.33;2.13;;;;;;;42.54;19.84;98380.13;5116403;27;40665;-86
2023/07/15 10:39:39;;;;;;;2.42;1.90;;;;;;;42.52;19.97;98371.31;5133758;27;42379;-78
2023/07/15 10:42:12;;;;;;;1.90;1.80;;;;;;;42.90;19.81;98385.69;5132773;27;41410;-78
2023/07/15 10:44:44;;;;;;;2.13;2.03;;;;;;;43.27;19.50;98365.75;5134072;27;42522;-78
2023/07/15 10:47:14;;;;;;;3.28;2.20;;;;;;;43.36;18.88;98362.97;5131598;27;42445;-80
2023/07/15 10:49:43;;;;;;;2.25;1.70;;;;;;;43.32;18.71;98373.13;5133514;27;43403;-80
2023/07/15 10:52:12;;;;;;;2.72;2.05;;;;;;;43.22;19.80;98356.69;5129847;27;42188;-82
2023/07/15 10:54:41;;;;;;;1.95;1.85;;;;;;;43.17;19.60;98365.97;5132625;27;38686;-77
2023/07/15 10:57:11;;;;;;;3.53;2.05;;;;;;;43.20;19.49;98370.13;5132651;27;42563;-83
2023/07/15 10:59:44;;;;;;;2.13;2.03;;;;;;;43.37;19.68;98364.63;5132725;27;20223;-79
2023/07/15 11:02:12;;;;;;;1.73;1.60;;;;;;;43.43;19.30;98368.91;5114214;27;41417;-78
2023/07/15 11:04:41;;;;;;;1.75;1.65;;;;;;;43.50;19.38;98365.66;5132303;27;39691;-80
2023/07/15 11:07:10;;;;;;;3.47;1.95;;;;;;;43.75;19.20;98369.69;5131665;27;41716;-77
2023/07/15 11:09:39;;;;;;;2.45;1.58;;;;;;;43.82;19.04;98337.38;5113960;27;42811;-79
2023/07/15 11:12:08;;;;;;;2.00;1.80;;;;;;;43.85;19.50;98352.63;5114392;27;41419;-80
2023/07/15 11:14:39;;;;;;;2.20;2.00;;;;;;;43.83;19.53;98346.56;5131655;27;40941;-78
2023/07/15 11:17:08;;;;;;;3.92;2.00;;;;;;;43.95;19.47;98352.31;5131414;27;41545;-77
2023/07/15 11:19:36;;;;;;;3.35;2.00;;;;;;;44.11;19.03;98349.91;5131303;27;41509;-79
2023/07/15 11:22:07;;;;;;;1.75;1.65;;;;;;;43.90;19.20;98344.91;5132139;27;42282;-79
2023/07/15 11:24:35;;;;;;;2.58;2.35;;;;;;;44.00;19.05;98332.66;5130539;27;40112;-81
2023/07/15 11:27:04;;;;;;;3.20;2.15;;;;;;;44.48;19.42;98342.88;5131080;27;41022;-77
2023/07/15 11:29:32;;;;;;;5.97;2.22;;;;;;;44.75;19.29;98331.34;5113764;27;42042;-77
2023/07/15 11:32:01;;;;;;;1.63;1.52;;;;;;;45.07;18.75;98346.69;5114055;27;40935;-79
2023/07/15 11:34:30;;;;;;;2.55;1.70;;;;;;;45.35;19.10;98338.72;5133030;27;41505;-76
2023/07/15 11:37:02;;;;;;;1.83;1.73;;;;;;;45.43;18.49;98330.28;5132027;27;40676;-80
2023/07/15 11:39:30;;;;;;;3.15;2.20;;;;;;;45.52;18.62;98341.44;5131021;27;42932;-80
2023/07/15 11:41:58;;;;;;;3.45;2.03;;;;;;;45.49;18.28;98344.91;5131698;27;42222;-79